Latest Weather Observations for Nhill Aerodrome

IDV60801

Issued at 9:52 pm EST Monday 18 June 2018 (issued every 10 minutes, with the page automatically refreshed every 10 minutes)

About weather observations | Map of weather stations | Latest weather observations for VIC | Other Formats
Station Details ID: 078015 Name: NHILL AERODROME Lat: -36.31 Lon: 141.65 Height: 138.9 m
Data from the previous 72 hours. | See also: Recent months at Nhill Aerodrome
Date/Time
EST
Temp
°C
App
Temp
°C
Dew
Point
°C
Rel
Hum
%
Delta-T
°C
Wind Press
QNH
hPa
Press
MSL
hPa
Rain since
9am
mm
Dir  Spd
km/h
Gust
km/h
Spd
kts
Gust
kts
18/09:30pm 9.1 5.3 4.1 71 2.2 SE 13 20 7 11 1028.4 1028.6 0.0
18/09:00pm 9.5 4.0 3.9 68 2.5 SE 22 28 12 15 1028.3 1028.5 0.0
18/08:30pm 9.2 4.4 4.4 72 2.1 SSE 19 22 10 12 1028.5 1028.7 0.0
18/08:00pm 9.0 5.3 4.6 74 1.9 SSE 13 17 7 9 1028.8 1029.0 0.0
18/07:30pm 8.8 5.9 4.8 76 1.8 S 9 11 5 6 1028.8 1029.0 0.0
18/07:00pm 9.1 5.8 4.5 73 2.0 S 11 13 6 7 1028.6 1028.8 0.0
18/06:30pm 9.2 5.8 4.2 71 2.2 S 11 19 6 10 1028.3 1028.5 0.0
18/06:00pm 9.2 5.8 4.2 71 2.2 S 11 13 6 7 1028.5 1028.7 0.0
18/05:30pm 9.5 4.6 4.1 69 2.4 S 19 26 10 14 1028.3 1028.5 0.0
18/05:00pm 9.9 6.2 4.5 69 2.4 S 13 17 7 9 1028.0 1028.3 0.0
18/04:30pm 10.0 5.1 4.0 66 2.7 S 19 22 10 12 1027.9 1028.2 0.0
18/04:00pm 10.1 5.7 4.5 68 2.5 S 17 22 9 12 1027.8 1028.1 0.0
18/03:30pm 10.1 5.1 4.5 68 2.5 SW 20 26 11 14 1028.0 1028.3 0.0
18/03:00pm 10.3 5.9 4.7 68 2.5 SW 17 28 9 15 1027.9 1028.2 0.0
18/02:30pm 10.4 5.8 3.7 63 3.0 S 17 22 9 12 1028.0 1028.3 0.0
18/02:00pm 10.5 5.4 4.2 65 2.8 SW 20 26 11 14 1027.9 1028.2 0.0
18/01:30pm 11.0 6.6 4.9 66 2.8 SSW 17 24 9 13 1028.4 1028.6 0.0
18/01:00pm 11.0 6.2 4.9 66 2.8 SSW 19 24 10 13 1028.4 1028.6 0.0
18/12:30pm 10.7 6.0 5.3 69 2.5 S 19 24 10 13 1028.8 1029.0 0.0
18/12:00pm 10.6 5.2 4.7 67 2.7 S 22 30 12 16 1029.1 1029.3 0.0
18/11:30am 10.0 4.6 4.4 68 2.5 S 22 35 12 19 1029.2 1029.4 0.0
18/11:00am 9.4 5.1 5.2 75 1.9 S 17 24 9 13 1029.1 1029.3 0.0
18/10:30am 8.5 4.6 7.0 90 0.7 S 17 24 9 13 1029.2 1029.4 0.0
18/10:00am 6.7 2.9 6.0 95 0.3 SSE 15 24 8 13 1029.2 1029.4 0.0
18/09:30am 5.4 2.1 4.8 96 0.3 S 11 15 6 8 1029.2 1029.4 0.0
18/09:00am 3.8 0.2 3.1 95 0.3 SSW 11 15 6 8 1029.1 1029.3 0.6
18/08:30am 3.1 -0.2 2.4 95 0.3 SSW 9 13 5 7 1028.9 1029.1 0.6
18/08:00am 2.5 -0.9 1.8 95 0.3 SSW 9 11 5 6 1028.6 1028.8 0.6
18/07:30am 2.3 -1.1 1.6 95 0.3 S 9 11 5 6 1028.1 1028.4 0.6
18/07:00am 3.2 -0.1 2.5 95 0.3 S 9 13 5 7 1027.8 1028.1 0.6
18/06:30am 3.9 0.3 3.2 95 0.3 SSW 11 13 6 7 1027.5 1027.8 0.6
18/06:00am 3.9 0.7 3.2 95 0.3 SSW 9 15 5 8 1027.6 1027.9 0.6
18/05:30am 3.8 0.2 2.9 94 0.4 SSW 11 15 6 8 1027.4 1027.7 0.4
18/05:00am 3.4 0.5 2.5 94 0.4 S 7 9 4 5 1027.3 1027.6 0.4
18/04:30am 3.1 -0.2 2.2 94 0.4 S 9 9 5 5 1027.2 1027.5 0.4
18/04:00am 3.2 0.4 2.2 93 0.4 SSW 6 9 3 5 1027.1 1027.4 0.4
18/03:30am 3.4 0.1 2.4 93 0.4 SSW 9 13 5 7 1026.9 1027.2 0.4
18/03:00am 3.6 -0.1 2.6 93 0.4 SSW 11 13 6 7 1026.6 1026.9 0.4
18/02:30am 4.0 0.8 3.0 93 0.4 SSW 9 11 5 6 1026.8 1027.1 0.4
18/02:00am 4.2 0.6 3.0 92 0.5 SSW 11 15 6 8 1026.8 1027.1 0.4
18/01:30am 4.5 1.0 3.3 92 0.5 S 11 15 6 8 1026.7 1027.0 0.4
18/01:00am 4.5 0.2 3.2 91 0.5 SSW 15 19 8 10 1026.8 1027.1 0.4
18/12:30am 4.9 0.2 3.4 90 0.6 SW 17 20 9 11 1026.7 1027.0 0.4
18/12:00am 5.2 1.3 3.5 89 0.7 SW 13 19 7 10 1026.8 1027.1 0.4
 
Date/Time
EST
Temp
°C
App
Temp
°C
Dew
Point
°C
Rel
Hum
%
Delta-T
°C
Wind Press
QNH
hPa
Press
MSL
hPa
Rain since
9am
mm
Dir  Spd
km/h
Gust
km/h
Spd
kts
Gust
kts
17/11:30pm 5.5 0.5 3.7 88 0.8 SW 19 20 10 11 1026.8 1027.1 0.4
17/11:00pm 5.8 1.2 3.8 87 0.8 WSW 17 26 9 14 1026.8 1027.1 0.4
17/10:30pm 6.3 1.4 4.1 86 0.9 WSW 19 26 10 14 1026.5 1026.8 0.4
17/10:00pm 7.5 1.7 4.6 82 1.3 SW 24 30 13 16 1026.4 1026.7 0.4
17/09:30pm 7.4 2.6 4.5 82 1.3 SW 19 26 10 14 1026.6 1026.9 0.4
17/09:00pm 7.5 2.5 4.8 83 1.2 SW 20 28 11 15 1026.3 1026.5 0.4
17/08:30pm 7.1 2.3 4.8 85 1.0 SW 19 20 10 11 1026.1 1026.3 0.4
17/08:00pm 6.9 3.2 4.6 85 1.0 SSW 13 17 7 9 1025.7 1025.9 0.4
17/07:30pm 7.6 2.6 4.7 82 1.3 SSW 20 24 11 13 1025.3 1025.5 0.4
17/07:00pm 8.6 3.9 5.9 83 1.2 SW 20 28 11 15 1024.9 1025.1 0.4
17/06:30pm 8.7 3.2 5.8 82 1.3 SW 24 33 13 18 1024.4 1024.6 0.4
17/06:00pm 8.7 3.2 6.0 83 1.2 SW 24 32 13 17 1023.9 1024.1 0.4
17/05:30pm 8.8 3.8 6.3 84 1.2 SW 22 30 12 16 1023.6 1023.8 0.4
17/05:00pm 9.4 3.2 6.1 80 1.5 SW 28 37 15 20 1023.4 1023.6 0.4
17/04:30pm 10.2 4.9 6.9 80 1.6 SW 24 32 13 17 1023.1 1023.3 0.2
17/04:00pm 10.2 3.2 6.0 75 1.9 SW 32 39 17 21 1022.9 1023.1 0.2
17/03:30pm 11.0 3.2 6.6 74 2.1 SW 37 46 20 25 1022.5 1022.7 0.2
17/03:00pm 9.9 2.8 6.4 79 1.6 SW 33 46 18 25 1022.3 1022.5 0.2
17/02:30pm 10.9 4.1 6.8 76 2.0 SSW 32 39 17 21 1022.1 1022.3 0.2
17/02:00pm 10.8 4.6 7.9 82 1.4 SSW 30 39 16 21 1021.9 1022.1 0.2
17/01:30pm 11.5 4.2 5.6 67 2.8 SW 33 43 18 23 1022.0 1022.2 0.0
17/01:00pm 11.2 4.0 6.1 71 2.4 SW 33 46 18 25 1022.2 1022.4 0.0
17/12:30pm 10.7 3.1 5.9 72 2.2 SW 35 46 19 25 1022.3 1022.5 0.0
17/12:00pm 10.8 2.9 6.2 73 2.2 SW 37 48 20 26 1022.4 1022.6 0.0
17/11:30am 10.0 1.6 5.8 75 1.9 SW 39 48 21 26 1022.6 1022.8 0.0
17/11:00am 10.1 2.9 6.1 76 1.9 SW 33 43 18 23 1022.5 1022.7 0.0
17/10:30am 9.6 2.4 6.1 79 1.6 SW 33 44 18 24 1022.5 1022.7 0.0
17/10:00am 8.7 2.1 6.0 83 1.2 SW 30 39 16 21 1022.2 1022.4 0.0
17/09:30am 7.9 2.4 6.0 88 0.9 WSW 24 32 13 17 1022.0 1022.2 0.0
17/09:00am 7.2 1.7 5.7 90 0.7 WSW 24 30 13 16 1021.5 1021.7 1.2
17/08:30am 6.6 1.3 5.2 91 0.6 WSW 22 26 12 14 1021.0 1021.2 1.2
17/08:00am 6.3 1.0 5.1 92 0.5 WSW 22 28 12 15 1020.5 1020.8 1.2
17/07:30am 6.3 1.0 5.1 92 0.5 WSW 22 28 12 15 1020.2 1020.4 1.2
17/07:00am 6.2 0.5 4.8 91 0.6 WSW 24 30 13 16 1019.9 1020.1 1.2
17/06:30am 6.4 1.5 5.0 91 0.6 WSW 20 28 11 15 1019.5 1019.7 1.2
17/06:00am 6.5 1.6 5.1 91 0.6 WSW 20 26 11 14 1019.1 1019.3 1.2
17/05:30am 6.5 1.2 5.1 91 0.6 WSW 22 28 12 15 1018.8 1019.0 1.2
17/05:00am 6.5 0.8 5.1 91 0.6 WSW 24 33 13 18 1018.9 1019.1 1.2
17/04:30am 6.4 0.3 5.0 91 0.6 WSW 26 35 14 19 1018.8 1019.0 1.2
17/04:00am 6.4 0.3 5.0 91 0.6 WSW 26 32 14 17 1018.8 1019.0 1.2
17/03:30am 6.6 0.6 5.2 91 0.6 WSW 26 33 14 18 1018.9 1019.1 1.2
17/03:00am 6.4 0.8 5.2 92 0.5 WSW 24 32 13 17 1019.0 1019.2 1.2
17/02:30am 5.7 0.7 4.5 92 0.5 WSW 20 26 11 14 1018.8 1019.0 1.2
17/02:00am 5.4 0.5 4.2 92 0.5 WSW 19 24 10 13 1018.9 1019.1 1.2
17/01:30am 5.3 -0.2 4.1 92 0.5 W 22 28 12 15 1018.8 1019.0 1.2
17/01:00am 5.1 -0.4 3.9 92 0.5 WSW 22 28 12 15 1018.8 1019.0 1.2
17/12:30am 5.1 -0.8 3.8 91 0.5 W 24 32 13 17 1018.5 1018.7 1.2
17/12:00am 4.8 -0.4 3.5 91 0.5 WSW 20 28 11 15 1018.6 1018.8 1.2
 
Date/Time
EST
Temp
°C
App
Temp
°C
Dew
Point
°C
Rel
Hum
%
Delta-T
°C
Wind Press
QNH
hPa
Press
MSL
hPa
Rain since
9am
mm
Dir  Spd
km/h
Gust
km/h
Spd
kts
Gust
kts
16/11:30pm 4.7 -0.6 3.2 90 0.6 WSW 20 28 11 15 1018.4 1018.6 1.2
16/11:00pm 5.0 -1.0 3.3 89 0.7 WSW 24 28 13 15 1018.3 1018.5 1.2
16/10:30pm 4.8 -0.9 3.1 89 0.7 WSW 22 28 12 15 1018.1 1018.3 1.2
16/10:00pm 4.8 -1.2 3.1 89 0.7 W 24 32 13 17 1018.0 1018.2 1.2
16/09:30pm 4.9 -0.7 3.4 90 0.6 WSW 22 30 12 16 1017.9 1018.1 1.2
16/09:00pm 5.1 -0.5 3.4 89 0.7 W 22 28 12 15 1017.6 1017.8 1.2
16/08:30pm 5.3 0.6 3.3 87 0.8 WSW 17 22 9 12 1017.4 1017.6 1.2
16/08:00pm 5.8 1.2 3.6 86 0.9 SW 17 20 9 11 1017.0 1017.2 1.2
16/07:30pm 6.2 1.1 4.0 86 0.9 SW 20 28 11 15 1016.9 1017.1 1.2
16/07:00pm 6.3 0.1 4.1 86 0.9 SW 26 35 14 19 1016.4 1016.6 1.2
16/06:30pm 6.4 0.2 4.4 87 0.9 SW 26 33 14 18 1016.1 1016.3 1.2
16/06:00pm 6.6 0.5 4.6 87 0.9 WSW 26 32 14 17 1015.9 1016.1 1.2
16/05:30pm 6.7 1.3 4.5 86 1.0 WSW 22 32 12 17 1015.8 1016.0 1.2
16/05:00pm 7.0 0.9 4.8 86 1.0 WSW 26 39 14 21 1015.6 1015.8 1.0
16/04:30pm 7.1 1.0 4.9 86 1.0 WSW 26 37 14 20 1015.5 1015.7 1.0
16/04:00pm 7.3 0.1 5.1 86 1.0 WSW 32 43 17 23 1015.4 1015.6 1.0
16/03:35pm 7.7 2.0 4.7 81 1.3 WSW 24 44 13 24 1015.1 1015.3 0.8
16/03:30pm 9.0 4.1 5.2 77 1.7 W 20 26 11 14 1014.9 1015.1 0.4
16/03:00pm 7.9 2.1 4.3 78 1.6 WNW 24 35 13 19 1014.9 1015.1 0.2
16/02:30pm 9.2 3.5 4.8 74 2.0 WNW 24 33 13 18 1014.8 1015.0 0.2
16/02:00pm 8.2 0.2 4.0 75 1.8 WSW 35 56 19 30 1015.1 1015.3 0.0
16/01:53pm 9.9 3.2 3.4 64 2.8 W 28 52 15 28 1015.0 1015.2 0.0
16/01:30pm 11.1 5.0 4.6 64 3.0 W 26 33 14 18 1015.0 1015.2 0.0
16/01:00pm 10.5 3.5 4.2 65 2.8 W 30 39 16 21 1015.5 1015.7 0.0
16/12:30pm 10.6 4.1 4.7 67 2.7 W 28 37 15 20 1015.8 1016.0 0.0
16/12:00pm 10.4 4.4 5.4 71 2.3 W 26 35 14 19 1016.3 1016.5 0.0
16/11:30am 9.6 3.5 4.8 72 2.2 W 26 35 14 19 1016.7 1016.9 0.0
16/11:00am 8.9 4.0 5.3 78 1.6 W 20 28 11 15 1016.9 1017.1 0.0
16/10:30am 8.4 2.8 5.3 81 1.4 W 24 32 13 17 1017.2 1017.4 0.0
16/10:00am 7.3 2.1 5.3 87 0.9 W 22 28 12 15 1017.0 1017.2 0.0
16/09:30am 6.3 1.9 4.9 91 0.6 W 17 20 9 11 1016.5 1016.7 0.0
16/09:00am 6.2 1.8 5.0 92 0.5 WNW 17 22 9 12 1016.5 1016.7 4.2
16/08:30am 5.5 2.2 4.3 92 0.5 WNW 11 24 6 13 1016.6 1016.8 4.0
16/08:00am 5.0 2.3 3.8 92 0.5 NW 7 11 4 6 1016.2 1016.4 4.0
16/07:30am 4.9 1.8 3.7 92 0.5 W 9 11 5 6 1016.1 1016.3 3.8
16/07:00am 4.9 -0.1 3.7 92 0.5 SSW 19 26 10 14 1016.1 1016.3 3.6
16/06:30am 6.3 2.0 5.3 93 0.4 WSW 17 20 9 11 1015.9 1016.1 1.2
16/06:00am 6.1 2.1 4.9 92 0.5 NW 15 17 8 9 1015.3 1015.5 0.6
16/05:30am 6.1 2.1 4.9 92 0.5 NNW 15 19 8 10 1014.7 1014.9 0.6
16/05:00am 6.3 1.6 5.1 92 0.5 NW 19 22 10 12 1014.8 1015.0 0.6
16/04:30am 6.5 2.2 5.3 92 0.5 NW 17 20 9 11 1015.2 1015.4 0.6
16/04:00am 6.6 3.0 5.2 91 0.6 WNW 13 17 7 9 1015.7 1015.9 0.6
16/03:30am 7.0 2.4 5.6 91 0.6 WNW 19 26 10 14 1016.2 1016.4 0.4
16/03:00am 6.9 2.7 5.7 92 0.5 WNW 17 24 9 13 1016.3 1016.5 0.4
16/02:30am 6.8 3.8 5.9 94 0.4 NW 11 15 6 8 1016.0 1016.2 0.4
16/02:00am 6.5 3.0 5.6 94 0.4 NW 13 15 7 8 1015.8 1016.0 0.4
16/01:30am 6.1 2.5 5.2 94 0.4 NW 13 17 7 9 1016.1 1016.3 0.4
16/01:00am 5.6 1.5 4.6 93 0.4 NNW 15 19 8 10 1016.2 1016.4 0.2
16/12:30am 5.6 1.9 4.6 93 0.4 NW 13 15 7 8 1016.4 1016.6 0.2
16/12:00am 5.8 1.7 4.6 92 0.5 NW 15 17 8 9 1016.6 1016.8 0.2
 
Date/Time
EST
Temp
°C
App
Temp
°C
Dew
Point
°C
Rel
Hum
%
Delta-T
°C
Wind Press
QNH
hPa
Press
MSL
hPa
Rain since
9am
mm
Dir  Spd
km/h
Gust
km/h
Spd
kts
Gust
kts
15/11:30pm 6.1 1.7 4.9 92 0.5 NW 17 19 9 10 1016.8 1017.0 0.2
15/11:00pm 6.3 2.3 4.8 90 0.7 NW 15 19 8 10 1016.9 1017.1 0.2
15/10:30pm 6.9 3.3 5.2 89 0.8 NW 13 17 7 9 1016.9 1017.1 0.2
15/10:00pm 7.2 3.8 5.7 90 0.7 WNW 13 17 7 9 1016.9 1017.1 0.2

Other Formats:

Comma delimited format used in spreadsheet applications
http://www.bom.gov.au/fwo/IDV60801/IDV60801.94827.axf

JavaScript Object Notation format (JSON) in row-major order
http://www.bom.gov.au/fwo/IDV60801/IDV60801.94827.json